createdAt,value
2023-02-26T00:01:32.809Z,100342.44
2023-02-26T00:04:02.197Z,100340.97
2023-02-26T00:06:30.531Z,100335.03
2023-02-26T00:08:58.414Z,100341.66
2023-02-26T00:11:27.925Z,100335.59
2023-02-26T00:13:56.264Z,100331.97
2023-02-26T00:16:28.854Z,100334.75
2023-02-26T00:18:57.484Z,100345.09
2023-02-26T00:21:27.007Z,100333.66
2023-02-26T00:23:54.960Z,100340.41
2023-02-26T00:26:24.311Z,100348.09
2023-02-26T00:28:53.989Z,100347.88
2023-02-26T00:31:24.869Z,100342.47
2023-02-26T00:33:53.602Z,100350.25
2023-02-26T00:36:24.857Z,100348.56
2023-02-26T00:39:02.964Z,100341.78
2023-02-26T00:41:31.345Z,100341.44
2023-02-26T00:44:01.021Z,100346.97
2023-02-26T00:46:41.014Z,100338.88
2023-02-26T00:49:19.393Z,100346.84
2023-02-26T00:51:50.556Z,100353.88
2023-02-26T00:54:22.117Z,100353.28
2023-02-26T00:56:50.611Z,100354.84
2023-02-26T00:59:20.729Z,100363.91
2023-02-26T01:01:49.039Z,100359.44
2023-02-26T01:04:18.181Z,100366.47
2023-02-26T01:06:48.258Z,100362.88
2023-02-26T01:09:23.942Z,100360.38
2023-02-26T01:11:52.684Z,100361.00
2023-02-26T01:14:23.180Z,100364.31
2023-02-26T01:16:57.473Z,100365.06
2023-02-26T01:19:34.319Z,100361.28
2023-02-26T01:22:09.354Z,100362.72
2023-02-26T01:24:38.324Z,100361.31
2023-02-26T01:27:06.457Z,100366.56
2023-02-26T01:29:35.853Z,100369.91
2023-02-26T01:32:09.783Z,100371.81
2023-02-26T01:34:43.244Z,100370.59
2023-02-26T01:37:22.747Z,100372.78
2023-02-26T01:40:14.061Z,100368.03
2023-02-26T01:42:45.580Z,100369.53
2023-02-26T01:45:19.091Z,100367.53
2023-02-26T01:47:52.759Z,100362.78
2023-02-26T01:50:25.694Z,100361.72
2023-02-26T01:53:18.428Z,100369.97
2023-02-26T01:55:50.411Z,100365.66
2023-02-26T01:58:19.123Z,100359.47
2023-02-26T02:00:48.130Z,100366.41
2023-02-26T02:03:16.021Z,100369.47
2023-02-26T02:05:48.250Z,100365.28
2023-02-26T02:08:17.229Z,100361.72
2023-02-26T02:10:47.263Z,100369.91
2023-02-26T02:13:23.272Z,100366.19
2023-02-26T02:16:01.136Z,100366.81
2023-02-26T02:18:38.669Z,100366.81
2023-02-26T02:21:23.770Z,100374.91
2023-02-26T02:23:56.780Z,100372.78
2023-02-26T02:26:51.296Z,100379.25
2023-02-26T02:29:57.240Z,100381.78
2023-02-26T02:32:31.912Z,100380.94
2023-02-26T02:35:05.864Z,100386.91
2023-02-26T02:37:38.114Z,100389.53
2023-02-26T02:40:08.726Z,100379.16
2023-02-26T02:42:41.034Z,100375.91
2023-02-26T02:45:12.662Z,100382.94
2023-02-26T02:47:44.307Z,100381.47
2023-02-26T02:50:18.477Z,100381.47
2023-02-26T02:52:51.931Z,100392.13
2023-02-26T02:55:23.638Z,100385.41
2023-02-26T02:57:56.630Z,100396.94
2023-02-26T03:00:25.563Z,100394.75
2023-02-26T03:03:01.986Z,100398.97
2023-02-26T03:05:29.701Z,100390.38
2023-02-26T03:08:01.644Z,100402.38
2023-02-26T03:10:29.812Z,100410.25
2023-02-26T03:12:57.517Z,100402.59
2023-02-26T03:15:34.816Z,100414.75
2023-02-26T03:18:14.018Z,100411.00
2023-02-26T03:20:54.364Z,100414.88
2023-02-26T03:23:26.190Z,100419.63
2023-02-26T03:25:57.606Z,100417.72
2023-02-26T03:28:31.729Z,100411.25
2023-02-26T03:31:03.898Z,100415.66
2023-02-26T03:33:46.538Z,100415.13
2023-02-26T03:36:19.699Z,100417.34
2023-02-26T03:38:50.503Z,100420.19
2023-02-26T03:41:23.209Z,100423.75
2023-02-26T03:43:58.247Z,100422.59
2023-02-26T03:46:30.746Z,100439.63
2023-02-26T03:49:04.150Z,100440.22
2023-02-26T03:51:32.254Z,100433.41
2023-02-26T03:54:06.987Z,100437.84
2023-02-26T03:56:40.292Z,100444.88
2023-02-26T03:59:08.032Z,100449.03
2023-02-26T04:01:41.322Z,100445.47
2023-02-26T04:04:13.594Z,100450.72
2023-02-26T04:06:42.813Z,100448.00
2023-02-26T04:09:10.589Z,100458.72
2023-02-26T04:11:39.851Z,100460.81
2023-02-26T04:14:07.550Z,100467.50
2023-02-26T04:16:35.232Z,100463.13
2023-02-26T04:19:02.922Z,100470.69
2023-02-26T04:21:32.005Z,100479.81
2023-02-26T04:23:59.662Z,100483.19
2023-02-26T04:26:27.477Z,100470.69
2023-02-26T04:28:55.174Z,100484.84
2023-02-26T04:31:22.987Z,100483.72
2023-02-26T04:33:50.660Z,100488.00
2023-02-26T04:36:18.410Z,100491.44
2023-02-26T04:38:47.418Z,100482.25
2023-02-26T04:41:15.081Z,100489.16
2023-02-26T04:43:42.792Z,100490.72
2023-02-26T04:46:10.541Z,100492.59
2023-02-26T04:48:38.345Z,100498.41
2023-02-26T04:51:06.221Z,100496.09
2023-02-26T04:53:33.843Z,100503.31
2023-02-26T04:56:03.003Z,100505.09
2023-02-26T04:58:30.715Z,100508.16
2023-02-26T05:00:58.830Z,100507.41
2023-02-26T05:03:26.477Z,100508.66
2023-02-26T05:05:54.066Z,100514.44
2023-02-26T05:08:21.725Z,100522.09
2023-02-26T05:10:49.336Z,100528.38
2023-02-26T05:13:18.484Z,100523.13
2023-02-26T05:15:46.586Z,100527.53
2023-02-26T05:18:14.444Z,100529.00
2023-02-26T05:20:42.319Z,100532.38
2023-02-26T05:23:09.932Z,100538.13
2023-02-26T05:25:37.556Z,100544.13
2023-02-26T05:28:05.524Z,100549.28
2023-02-26T05:30:34.618Z,100545.81
2023-02-26T05:33:02.210Z,100556.00
2023-02-26T05:35:29.867Z,100565.97
2023-02-26T05:37:57.499Z,100559.03
2023-02-26T05:40:25.544Z,100571.00
2023-02-26T05:42:53.215Z,100571.22
2023-02-26T05:45:20.843Z,100572.28
2023-02-26T05:47:49.853Z,100571.53
2023-02-26T05:50:17.786Z,100576.78
2023-02-26T05:52:45.420Z,100574.06
2023-02-26T05:55:13.648Z,100588.41
2023-02-26T05:57:41.333Z,100588.41
2023-02-26T06:00:10.745Z,100587.69
2023-02-26T06:02:38.385Z,100592.41
2023-02-26T06:05:09.070Z,100587.34
2023-02-26T06:07:36.739Z,100599.94
2023-02-26T06:10:04.639Z,100593.09
2023-02-26T06:12:32.352Z,100597.28
2023-02-26T06:15:00.117Z,100606.63
2023-02-26T06:17:28.006Z,100608.16
2023-02-26T06:19:55.624Z,100609.31
2023-02-26T06:22:24.649Z,100602.59
2023-02-26T06:24:52.311Z,100606.25
2023-02-26T06:27:19.994Z,100616.72
2023-02-26T06:29:47.677Z,100620.41
2023-02-26T06:32:15.581Z,100619.94
2023-02-26T06:34:43.271Z,100622.88
2023-02-26T06:37:11.047Z,100626.03
2023-02-26T06:39:41.284Z,100624.91
2023-02-26T06:42:09.086Z,100635.91
2023-02-26T06:44:36.689Z,100642.84
2023-02-26T06:47:04.620Z,100648.81
2023-02-26T06:49:32.503Z,100657.03
2023-02-26T06:52:00.419Z,100662.81
2023-02-26T06:54:28.221Z,100665.25
2023-02-26T06:56:57.874Z,100659.06
2023-02-26T06:59:25.937Z,100677.69
2023-02-26T07:01:53.628Z,100684.63
2023-02-26T07:04:23.759Z,100684.72
2023-02-26T07:06:51.588Z,100688.22
2023-02-26T07:09:20.409Z,100685.31
2023-02-26T07:11:48.164Z,100692.34
2023-02-26T07:14:17.458Z,100695.97
2023-02-26T07:16:45.228Z,100697.75
2023-02-26T07:19:13.033Z,100709.75
2023-02-26T07:21:41.120Z,100712.81
2023-02-26T07:24:09.517Z,100714.31
2023-02-26T07:26:39.327Z,100719.56
2023-02-26T07:29:07.120Z,100721.47
2023-02-26T07:31:36.768Z,100728.97
2023-02-26T07:34:04.565Z,100726.13
2023-02-26T07:36:32.330Z,100732.88
2023-02-26T07:39:00.106Z,100733.97
2023-02-26T07:41:28.214Z,100737.06
2023-02-26T07:43:56.135Z,100739.16
2023-02-26T07:46:24.023Z,100746.88
2023-02-26T07:48:53.274Z,100753.69
2023-02-26T07:51:21.115Z,100763.66
2023-02-26T07:53:48.705Z,100761.13
2023-02-26T07:56:16.423Z,100769.38
2023-02-26T07:58:44.153Z,100776.81
2023-02-26T08:01:11.912Z,100779.63
2023-02-26T08:03:39.837Z,100783.44
2023-02-26T08:06:10.060Z,100780.25
2023-02-26T08:08:37.774Z,100779.59
2023-02-26T08:11:05.737Z,100776.03
2023-02-26T08:13:33.886Z,100776.69
2023-02-26T08:16:01.669Z,100780.09
2023-02-26T08:18:29.710Z,100785.63
2023-02-26T08:20:57.368Z,100782.19
2023-02-26T08:23:27.663Z,100786.94
2023-02-26T08:26:01.448Z,100788.00
2023-02-26T08:28:29.145Z,100791.81
2023-02-26T08:30:56.930Z,100794.59
2023-02-26T08:33:25.796Z,100794.06
2023-02-26T08:35:54.141Z,100798.19
2023-02-26T08:38:22.116Z,100798.50
2023-02-26T08:40:52.761Z,100795.44
2023-02-26T08:43:20.833Z,100798.41
2023-02-26T08:45:48.722Z,100795.69
2023-02-26T08:48:16.468Z,100801.56
2023-02-26T08:50:44.119Z,100796.72
2023-02-26T08:53:11.801Z,100804.94
2023-02-26T08:55:39.470Z,100805.25
2023-02-26T08:58:08.773Z,100808.22
2023-02-26T09:00:36.466Z,100816.28
2023-02-26T09:03:04.256Z,100818.38
2023-02-26T09:05:32.054Z,100811.16
2023-02-26T09:07:59.819Z,100819.41
2023-02-26T09:10:27.927Z,100819.13
2023-02-26T09:12:58.521Z,100816.13
2023-02-26T09:15:27.667Z,100823.00
2023-02-26T09:17:55.468Z,100827.59
2023-02-26T09:20:23.199Z,100834.28
2023-02-26T09:22:50.917Z,100834.63
2023-02-26T09:25:18.780Z,100843.59
2023-02-26T09:27:46.432Z,100842.28
2023-02-26T09:30:15.344Z,100835.94
2023-02-26T09:32:44.656Z,100847.19
2023-02-26T09:35:12.722Z,100845.00
2023-02-26T09:37:40.483Z,100841.81
2023-02-26T09:40:12.292Z,100862.16
2023-02-26T09:42:54.326Z,100849.03
2023-02-26T09:45:28.357Z,100857.53
2023-02-26T09:47:59.203Z,100852.47
2023-02-26T09:50:33.217Z,100860.88
2023-02-26T09:53:09.593Z,100871.66
2023-02-26T09:55:43.576Z,100860.41
2023-02-26T09:58:19.151Z,100862.00
2023-02-26T10:00:54.536Z,100864.84
2023-02-26T10:03:31.460Z,100861.19
2023-02-26T10:06:19.442Z,100873.50
2023-02-26T10:08:57.289Z,100871.22
2023-02-26T10:11:31.510Z,100866.16
2023-02-26T10:14:04.889Z,100866.06
2023-02-26T10:16:39.462Z,100876.34
2023-02-26T10:19:12.541Z,100882.34
2023-02-26T10:21:44.951Z,100886.63
2023-02-26T10:24:17.264Z,100886.84
2023-02-26T10:26:47.034Z,100882.16
2023-02-26T10:29:23.382Z,100888.00
2023-02-26T10:32:02.828Z,100897.19
2023-02-26T10:34:35.916Z,100907.66
2023-02-26T10:37:14.392Z,100897.09
2023-02-26T10:39:56.169Z,100894.81
2023-02-26T10:42:27.109Z,100906.53
2023-02-26T10:45:08.741Z,100898.06
2023-02-26T10:47:47.542Z,100904.16
2023-02-26T10:50:21.516Z,100907.25
2023-02-26T10:52:53.766Z,100911.28
2023-02-26T10:55:34.435Z,100913.16
2023-02-26T10:58:06.724Z,100908.03
2023-02-26T11:00:36.331Z,100910.91
2023-02-26T11:03:06.609Z,100910.28
2023-02-26T11:05:36.341Z,100912.44
2023-02-26T11:08:07.035Z,100906.69
2023-02-26T11:10:42.675Z,100902.44
2023-02-26T11:13:11.214Z,100902.84
2023-02-26T11:15:39.136Z,100908.75
2023-02-26T11:18:10.336Z,100910.81
2023-02-26T11:20:43.005Z,100906.47
2023-02-26T11:23:14.511Z,100909.78
2023-02-26T11:25:42.415Z,100904.81
2023-02-26T11:28:30.884Z,100902.28
2023-02-26T11:31:02.990Z,100902.84
2023-02-26T11:33:38.160Z,100898.25
2023-02-26T11:36:13.074Z,100898.53
2023-02-26T11:38:41.439Z,100900.13
2023-02-26T11:41:10.148Z,100902.28
2023-02-26T11:43:44.780Z,100903.56
2023-02-26T11:46:13.813Z,100904.13
2023-02-26T11:48:45.500Z,100906.22
2023-02-26T11:51:16.854Z,100910.66
2023-02-26T11:53:50.978Z,100918.56
2023-02-26T11:56:26.960Z,100916.88
2023-02-26T11:58:56.087Z,100913.81
2023-02-26T12:01:29.196Z,100915.16
2023-02-26T12:04:00.814Z,100906.34
2023-02-26T12:06:30.845Z,100897.38
2023-02-26T12:08:58.695Z,100909.16
2023-02-26T12:12:06.194Z,100915.31
2023-02-26T12:14:48.436Z,100906.59
2023-02-26T12:17:36.225Z,100906.06
2023-02-26T12:20:17.619Z,100902.97
2023-02-26T12:22:55.908Z,100902.25
2023-02-26T12:25:32.588Z,100903.81
2023-02-26T12:28:20.105Z,100911.34
2023-02-26T12:31:17.310Z,100913.88
2023-02-26T12:33:56.343Z,100915.25
2023-02-26T12:36:48.364Z,100917.16
2023-02-26T12:39:33.452Z,100911.34
2023-02-26T12:42:14.062Z,100902.03
2023-02-26T12:44:58.053Z,100902.41
2023-02-26T12:47:40.343Z,100893.88
2023-02-26T12:50:22.952Z,100906.59
2023-02-26T12:53:06.335Z,100901.50
2023-02-26T12:55:45.517Z,100904.28
2023-02-26T12:58:35.602Z,100897.63
2023-02-26T13:01:13.991Z,100906.81
2023-02-26T13:03:58.574Z,100902.59
2023-02-26T13:06:52.367Z,100911.09
2023-02-26T13:09:32.213Z,100905.81
2023-02-26T13:12:19.837Z,100900.38
2023-02-26T13:14:54.767Z,100903.88
2023-02-26T13:17:29.371Z,100905.69
2023-02-26T13:20:01.616Z,100905.22
2023-02-26T13:22:33.413Z,100899.91
2023-02-26T13:25:05.077Z,100896.06
2023-02-26T13:27:38.591Z,100904.44
2023-02-26T13:30:19.807Z,100900.03
2023-02-26T13:32:49.996Z,100901.38
2023-02-26T13:35:22.201Z,100903.06
2023-02-26T13:37:52.730Z,100912.19
2023-02-26T13:40:47.477Z,100916.94
2023-02-26T13:43:34.811Z,100911.94
2023-02-26T13:46:15.175Z,100921.34
2023-02-26T13:48:53.916Z,100915.56
2023-02-26T13:51:31.616Z,100916.41
2023-02-26T13:54:02.203Z,100927.06
2023-02-26T13:56:53.405Z,100924.53
2023-02-26T13:59:48.326Z,100920.94
2023-02-26T14:02:45.584Z,100931.13
2023-02-26T14:05:47.173Z,100929.94
2023-02-26T14:08:28.403Z,100922.88
2023-02-26T14:10:59.670Z,100941.69
2023-02-26T14:13:36.563Z,100939.22
2023-02-26T14:16:13.853Z,100941.50
2023-02-26T14:18:51.942Z,100952.00
2023-02-26T14:21:37.106Z,100947.06
2023-02-26T14:24:14.580Z,100946.41
2023-02-26T14:26:47.272Z,100960.44
2023-02-26T14:29:20.819Z,100959.59
2023-02-26T14:32:14.015Z,100963.53
2023-02-26T14:34:50.627Z,100965.13
2023-02-26T14:37:22.746Z,100962.81
2023-02-26T14:39:56.358Z,100967.25
2023-02-26T14:42:32.144Z,100969.31
2023-02-26T14:45:10.116Z,100972.69
2023-02-26T14:47:39.745Z,100977.50
2023-02-26T14:50:08.601Z,100972.09
2023-02-26T14:52:52.913Z,100984.00
2023-02-26T14:55:45.530Z,100979.28
2023-02-26T14:58:27.928Z,100980.59
2023-02-26T15:01:16.059Z,100980.78
2023-02-26T15:04:15.039Z,100987.78
2023-02-26T15:06:58.896Z,100978.06
2023-02-26T15:09:36.740Z,100980.41
2023-02-26T15:12:20.519Z,100980.19
2023-02-26T15:15:03.856Z,100983.22
2023-02-26T15:17:45.514Z,100994.09
2023-02-26T15:20:25.036Z,100989.69
2023-02-26T15:23:06.808Z,100996.97
2023-02-26T15:25:37.607Z,100993.50
2023-02-26T15:28:07.882Z,101001.31
2023-02-26T15:30:36.136Z,100993.06
2023-02-26T15:33:08.687Z,101003.72
2023-02-26T15:35:37.707Z,101000.22
2023-02-26T15:38:05.850Z,101012.44
2023-02-26T15:40:37.366Z,101007.91
2023-02-26T15:43:07.882Z,101003.19
2023-02-26T15:45:38.806Z,101002.34
2023-02-26T15:48:08.768Z,101008.75
2023-02-26T15:50:42.223Z,101018.16
2023-02-26T15:53:14.100Z,101023.19
2023-02-26T15:55:52.648Z,101022.22
2023-02-26T15:58:22.984Z,101012.88
2023-02-26T16:00:55.003Z,101025.22
2023-02-26T16:03:28.234Z,101021.53
2023-02-26T16:05:59.306Z,101020.03
2023-02-26T16:08:27.460Z,101019.41
2023-02-26T16:10:57.718Z,101023.84
2023-02-26T16:13:31.039Z,101019.41
2023-02-26T16:16:05.743Z,101021.09
2023-02-26T16:18:35.014Z,101018.56
2023-02-26T16:21:08.670Z,101009.19
2023-02-26T16:23:44.831Z,101023.63
2023-02-26T16:26:17.958Z,101027.50
2023-02-26T16:28:48.733Z,101028.56
2023-02-26T16:31:19.822Z,101032.03
2023-02-26T16:33:55.474Z,101032.78
2023-02-26T16:36:27.357Z,101034.56
2023-02-26T16:39:02.738Z,101045.31
2023-02-26T16:41:36.049Z,101044.84
2023-02-26T16:44:05.929Z,101051.56
2023-02-26T16:46:43.565Z,101052.41
2023-02-26T16:49:18.464Z,101052.41
2023-02-26T16:51:49.047Z,101060.31
2023-02-26T16:54:20.988Z,101061.25
2023-02-26T16:56:52.174Z,101065.03
2023-02-26T16:59:23.356Z,101067.88
2023-02-26T17:01:54.994Z,101072.59
2023-02-26T17:04:26.806Z,101083.88
2023-02-26T17:06:56.679Z,101074.63
2023-02-26T17:09:31.906Z,101084.59
2023-02-26T17:12:12.275Z,101092.31
2023-02-26T17:14:42.191Z,101094.19
2023-02-26T17:17:10.514Z,101098.59
2023-02-26T17:19:38.515Z,101104.63
2023-02-26T17:22:18.408Z,101110.91
2023-02-26T17:24:47.545Z,101114.09
2023-02-26T17:27:18.802Z,101120.31
2023-02-26T17:29:50.854Z,101123.78
2023-02-26T17:32:20.852Z,101122.53
2023-02-26T17:34:48.650Z,101128.22
2023-02-26T17:37:17.720Z,101130.97
2023-02-26T17:39:46.071Z,101145.06
2023-02-26T17:42:16.316Z,101145.94
2023-02-26T17:44:44.244Z,101139.56
2023-02-26T17:47:16.611Z,101149.00
2023-02-26T17:49:44.483Z,101158.69
2023-02-26T17:52:12.129Z,101160.97
2023-02-26T17:54:41.261Z,101170.38
2023-02-26T17:57:16.464Z,101166.38
2023-02-26T17:59:44.171Z,101170.56
2023-02-26T18:02:17.990Z,101167.75
2023-02-26T18:04:45.711Z,101170.78
2023-02-26T18:07:16.339Z,101168.06
2023-02-26T18:09:45.865Z,101171.00
2023-02-26T18:12:15.592Z,101176.63
2023-02-26T18:14:45.358Z,101177.78
2023-02-26T18:17:14.581Z,101182.47
2023-02-26T18:19:42.518Z,101187.16
2023-02-26T18:22:14.100Z,101191.47
2023-02-26T18:24:41.855Z,101192.94
2023-02-26T18:27:14.691Z,101196.06
2023-02-26T18:29:42.702Z,101196.91
2023-02-26T18:32:14.547Z,101198.59
2023-02-26T18:34:42.672Z,101200.78
2023-02-26T18:37:13.513Z,101199.34
2023-02-26T18:39:41.373Z,101198.50
2023-02-26T18:42:20.349Z,101208.94
2023-02-26T18:44:48.191Z,101206.66
2023-02-26T18:47:16.413Z,101204.81
2023-02-26T18:49:44.208Z,101214.75
2023-02-26T18:52:12.457Z,101209.47
2023-02-26T18:54:40.594Z,101211.53
2023-02-26T18:57:09.882Z,101219.59
2023-02-26T18:59:38.893Z,101221.31
2023-02-26T19:02:10.967Z,101224.31
2023-02-26T19:04:38.788Z,101233.34
2023-02-26T19:07:06.605Z,101234.72
2023-02-26T19:09:35.083Z,101238.00
2023-02-26T19:12:03.537Z,101245.53
2023-02-26T19:14:31.208Z,101239.44
2023-02-26T19:17:00.286Z,101246.47
2023-02-26T19:19:28.654Z,101242.34
2023-02-26T19:21:57.734Z,101248.63
2023-02-26T19:24:25.532Z,101248.63
2023-02-26T19:26:53.128Z,101251.94
2023-02-26T19:29:21.418Z,101257.56
2023-02-26T19:31:49.327Z,101255.59
2023-02-26T19:34:18.482Z,101254.00
2023-02-26T19:36:48.132Z,101257.97
2023-02-26T19:39:17.344Z,101256.47
2023-02-26T19:41:45.858Z,101258.53
2023-02-26T19:44:13.535Z,101259.25
2023-02-26T19:46:42.108Z,101262.84
2023-02-26T19:49:10.076Z,101267.13
2023-02-26T19:51:39.815Z,101265.28
2023-02-26T19:54:07.776Z,101273.31
2023-02-26T19:56:35.529Z,101271.16
2023-02-26T19:59:03.688Z,101281.75
2023-02-26T20:01:31.938Z,101273.78
2023-02-26T20:04:00.872Z,101289.63
2023-02-26T20:06:29.087Z,101289.72
2023-02-26T20:08:58.115Z,101291.09
2023-02-26T20:11:26.106Z,101289.25
2023-02-26T20:13:53.996Z,101290.56
2023-02-26T20:16:21.952Z,101295.19
2023-02-26T20:18:49.656Z,101291.94
2023-02-26T20:21:17.267Z,101294.69
2023-02-26T20:23:45.429Z,101291.31
2023-02-26T20:26:16.742Z,101295.72
2023-02-26T20:28:44.840Z,101290.31
2023-02-26T20:31:12.980Z,101292.16
2023-02-26T20:33:40.750Z,101295.16
2023-02-26T20:36:10.192Z,101298.97
2023-02-26T20:38:38.606Z,101297.75
2023-02-26T20:41:06.670Z,101302.50
2023-02-26T20:43:36.307Z,101299.72
2023-02-26T20:46:04.628Z,101303.63
2023-02-26T20:48:32.264Z,101303.72
2023-02-26T20:51:01.115Z,101308.78
2023-02-26T20:53:29.299Z,101307.75
2023-02-26T20:55:56.975Z,101305.63
2023-02-26T20:58:24.711Z,101310.03
2023-02-26T21:00:57.971Z,101307.22
2023-02-26T21:03:26.162Z,101313.81
2023-02-26T21:05:54.128Z,101311.38
2023-02-26T21:08:22.100Z,101310.47
2023-02-26T21:10:51.134Z,101314.34
2023-02-26T21:13:19.140Z,101316.50
2023-02-26T21:15:46.928Z,101318.28
2023-02-26T21:18:16.119Z,101314.66
2023-02-26T21:20:44.017Z,101308.81
2023-02-26T21:23:11.887Z,101309.00
2023-02-26T21:25:40.062Z,101316.13
2023-02-26T21:28:07.828Z,101316.38
2023-02-26T21:30:35.656Z,101320.53
2023-02-26T21:33:03.458Z,101323.81
2023-02-26T21:35:32.617Z,101319.63
2023-02-26T21:38:00.425Z,101323.75
2023-02-26T21:40:28.145Z,101326.53
2023-02-26T21:42:55.753Z,101333.81
2023-02-26T21:45:23.696Z,101326.97
2023-02-26T21:47:51.578Z,101331.97
2023-02-26T21:50:19.386Z,101330.69
2023-02-26T21:52:48.618Z,101330.84
2023-02-26T21:55:16.366Z,101339.34
2023-02-26T21:57:44.162Z,101336.09
2023-02-26T22:00:13.093Z,101338.00
2023-02-26T22:02:42.383Z,101336.97
2023-02-26T22:05:11.427Z,101332.78
2023-02-26T22:07:40.039Z,101330.88
2023-02-26T22:10:11.998Z,101333.25
2023-02-26T22:12:39.882Z,101330.72
2023-02-26T22:15:08.747Z,101334.25
2023-02-26T22:17:36.443Z,101332.56
2023-02-26T22:20:09.774Z,101334.06
2023-02-26T22:22:38.003Z,101334.69
2023-02-26T22:25:06.791Z,101334.19
2023-02-26T22:27:35.875Z,101336.38
2023-02-26T22:30:03.581Z,101332.56
2023-02-26T22:32:31.317Z,101336.13
2023-02-26T22:34:59.379Z,101328.50
2023-02-26T22:37:26.986Z,101333.34
2023-02-26T22:39:54.734Z,101339.66
2023-02-26T22:42:22.396Z,101340.66
2023-02-26T22:44:51.512Z,101336.69
2023-02-26T22:47:19.181Z,101337.97
2023-02-26T22:49:46.857Z,101338.81
2023-02-26T22:52:14.677Z,101336.88
2023-02-26T22:54:42.392Z,101329.66
2023-02-26T22:57:10.202Z,101332.38
2023-02-26T22:59:37.935Z,101334.06
2023-02-26T23:02:06.996Z,101337.13
2023-02-26T23:04:34.824Z,101349.88
2023-02-26T23:07:02.601Z,101349.38
2023-02-26T23:09:30.294Z,101353.13
2023-02-26T23:11:58.009Z,101344.06
2023-02-26T23:14:25.617Z,101348.81
2023-02-26T23:16:53.275Z,101349.88
2023-02-26T23:19:22.418Z,101340.94
2023-02-26T23:21:50.099Z,101351.50
2023-02-26T23:24:17.864Z,101345.56
2023-02-26T23:26:45.934Z,101344.97
2023-02-26T23:29:13.539Z,101355.38
2023-02-26T23:31:41.815Z,101350.56
2023-02-26T23:34:10.942Z,101354.69
2023-02-26T23:36:40.021Z,101350.38
2023-02-26T23:39:08.603Z,101350.44
2023-02-26T23:41:36.702Z,101348.78
2023-02-26T23:44:04.314Z,101347.38
2023-02-26T23:46:32.132Z,101349.94
2023-02-26T23:48:59.908Z,101348.22
2023-02-26T23:51:27.755Z,101356.03
2023-02-26T23:53:56.937Z,101354.09
2023-02-26T23:56:24.683Z,101360.41
2023-02-26T23:58:53.024Z,101355.44
